createdAt,value
2017-04-02T00:00:05.639Z,1007.49
2017-04-02T00:01:05.669Z,1007.56
2017-04-02T00:02:05.706Z,1007.55
2017-04-02T00:03:05.739Z,1007.53
2017-04-02T00:04:05.777Z,1007.53
2017-04-02T00:05:05.807Z,1007.62
2017-04-02T00:06:05.840Z,1007.6
2017-04-02T00:07:05.879Z,1007.66
2017-04-02T00:08:05.907Z,1007.63
2017-04-02T00:09:05.944Z,1007.62
2017-04-02T00:10:05.962Z,1007.68
2017-04-02T00:11:06.009Z,1007.65
2017-04-02T00:12:06.044Z,1007.63
2017-04-02T00:13:06.081Z,1007.6
2017-04-02T00:14:06.107Z,1007.57
2017-04-02T00:15:06.134Z,1007.6
2017-04-02T00:16:06.182Z,1007.57
2017-04-02T00:17:06.212Z,1007.59
2017-04-02T00:18:06.247Z,1007.64
2017-04-02T00:19:06.285Z,1007.65
2017-04-02T00:20:06.305Z,1007.63
2017-04-02T00:21:06.348Z,1007.57
2017-04-02T00:22:06.384Z,1007.58
2017-04-02T00:23:06.403Z,1007.62
2017-04-02T00:24:06.451Z,1007.59
2017-04-02T00:25:06.486Z,1007.55
2017-04-02T00:26:06.518Z,1007.57
2017-04-02T00:27:06.555Z,1007.57
2017-04-02T00:28:06.629Z,1007.6
2017-04-02T00:29:06.613Z,1007.58
2017-04-02T00:30:06.654Z,1007.55
2017-04-02T00:31:06.689Z,1007.6
2017-04-02T00:32:06.721Z,1007.54
2017-04-02T00:33:06.755Z,1007.55
2017-04-02T00:34:06.789Z,1007.54
2017-04-02T00:35:06.821Z,1007.55
2017-04-02T00:36:06.855Z,1007.57
2017-04-02T00:37:06.891Z,1007.56
2017-04-02T00:38:06.923Z,1007.53
2017-04-02T00:39:06.957Z,1007.59
2017-04-02T00:40:06.989Z,1007.55
2017-04-02T00:41:07.012Z,1007.57
2017-04-02T00:42:07.062Z,1007.59
2017-04-02T00:43:07.094Z,1007.53
2017-04-02T00:44:07.115Z,1007.55
2017-04-02T00:45:07.159Z,1007.59
2017-04-02T00:46:07.192Z,1007.61
2017-04-02T00:47:07.215Z,1007.61
2017-04-02T00:48:07.260Z,1007.59
2017-04-02T00:49:07.294Z,1007.63
2017-04-02T00:50:07.329Z,1007.62
2017-04-02T00:51:07.361Z,1007.65
2017-04-02T00:52:07.393Z,1007.6
2017-04-02T00:53:07.432Z,1007.64
2017-04-02T00:54:07.460Z,1007.69
2017-04-02T00:55:07.491Z,1007.68
2017-04-02T00:56:07.529Z,1007.75
2017-04-02T00:57:07.566Z,1007.79
2017-04-02T00:58:07.594Z,1007.79
2017-04-02T00:59:07.633Z,1007.77
2017-04-02T01:00:07.665Z,1007.83
2017-04-02T01:01:07.696Z,1007.81
2017-04-02T01:02:07.732Z,1007.75
2017-04-02T01:03:07.765Z,1007.76
2017-04-02T01:04:07.796Z,1007.87
2017-04-02T01:05:07.828Z,1007.82
2017-04-02T01:06:07.865Z,1007.87
2017-04-02T01:07:07.900Z,1007.88
2017-04-02T01:08:07.929Z,1007.96
2017-04-02T01:09:07.962Z,1008.01
2017-04-02T01:10:07.997Z,1008.05
2017-04-02T01:11:08.033Z,1008.1
2017-04-02T01:12:08.065Z,1008.13
2017-04-02T01:13:08.096Z,1008.18
2017-04-02T01:14:08.138Z,1008.23
2017-04-02T01:15:08.168Z,1008.3
2017-04-02T01:16:08.198Z,1008.31
2017-04-02T01:17:08.234Z,1008.42
2017-04-02T01:18:08.265Z,1008.46
2017-04-02T01:19:08.297Z,1008.46
2017-04-02T01:20:08.336Z,1008.58
2017-04-02T01:21:08.366Z,1008.6
2017-04-02T01:22:08.400Z,1008.66
2017-04-02T01:23:08.431Z,1008.66
2017-04-02T01:24:08.466Z,1008.65
2017-04-02T01:25:08.500Z,1008.65
2017-04-02T01:26:08.538Z,1008.63
2017-04-02T01:27:08.565Z,1008.6
2017-04-02T01:28:08.600Z,1008.65
2017-04-02T01:29:08.636Z,1008.7
2017-04-02T01:30:08.665Z,1008.68
2017-04-02T01:31:08.699Z,1008.71
2017-04-02T01:32:08.735Z,1008.71
2017-04-02T01:33:08.768Z,1008.72
2017-04-02T01:34:08.800Z,1008.71
2017-04-02T01:35:08.833Z,1008.73
2017-04-02T01:36:08.866Z,1008.81
2017-04-02T01:37:08.903Z,1008.82
2017-04-02T01:38:08.933Z,1008.82
2017-04-02T01:39:08.965Z,1008.81
2017-04-02T01:40:08.998Z,1008.8
2017-04-02T01:41:09.034Z,1008.84
2017-04-02T01:42:09.104Z,1008.88
2017-04-02T01:43:09.097Z,1008.84
2017-04-02T01:44:09.135Z,1008.87
2017-04-02T01:45:09.168Z,1008.84
2017-04-02T01:46:09.196Z,1008.85
2017-04-02T01:47:09.233Z,1008.89
2017-04-02T01:48:09.266Z,1008.87
2017-04-02T01:49:09.282Z,1008.88
2017-04-02T01:50:09.328Z,1008.88
2017-04-02T01:51:09.365Z,1008.89
2017-04-02T01:52:09.399Z,1008.91
2017-04-02T01:53:09.430Z,1008.94
2017-04-02T01:54:09.466Z,1008.94
2017-04-02T01:55:09.487Z,1008.92
2017-04-02T01:56:09.530Z,1008.92
2017-04-02T01:57:09.562Z,1008.92
2017-04-02T01:58:09.630Z,1008.91
2017-04-02T01:59:09.632Z,1008.88
2017-04-02T02:00:09.821Z,1008.92
2017-04-02T02:01:09.700Z,1008.91
2017-04-02T02:02:09.728Z,1008.89
2017-04-02T02:03:09.750Z,1008.85
2017-04-02T02:04:09.795Z,1008.91
2017-04-02T02:05:09.828Z,1008.92
2017-04-02T02:06:09.858Z,1008.92
2017-04-02T02:07:09.893Z,1008.92
2017-04-02T02:08:09.928Z,1008.96
2017-04-02T02:09:09.959Z,1009
2017-04-02T02:10:09.991Z,1008.99
2017-04-02T02:11:10.025Z,1009.02
2017-04-02T02:12:10.058Z,1009.06
2017-04-02T02:13:10.133Z,1009.04
2017-04-02T02:14:10.123Z,1009.07
2017-04-02T02:15:10.155Z,1009.08
2017-04-02T02:16:10.188Z,1009.13
2017-04-02T02:17:10.223Z,1009.11
2017-04-02T02:18:10.253Z,1009.11
2017-04-02T02:19:10.288Z,1009.16
2017-04-02T02:20:10.321Z,1009.2
2017-04-02T02:21:10.353Z,1009.17
2017-04-02T02:22:10.387Z,1009.22
2017-04-02T02:23:10.422Z,1009.22
2017-04-02T02:24:10.450Z,1009.27
2017-04-02T02:25:10.786Z,1009.32
2017-04-02T02:26:10.520Z,1009.24
2017-04-02T02:27:10.554Z,1009.25
2017-04-02T02:28:10.583Z,1009.26
2017-04-02T02:29:10.618Z,1009.33
2017-04-02T02:30:10.655Z,1009.33
2017-04-02T02:31:10.682Z,1009.31
2017-04-02T02:32:10.699Z,1009.3
2017-04-02T02:33:10.749Z,1009.35
2017-04-02T02:34:10.782Z,1009.38
2017-04-02T02:35:10.814Z,1009.4
2017-04-02T02:36:10.848Z,1009.46
2017-04-02T02:37:10.881Z,1009.45
2017-04-02T02:38:10.918Z,1009.41
2017-04-02T02:39:10.944Z,1009.39
2017-04-02T02:40:10.975Z,1009.43
2017-04-02T02:41:11.009Z,1009.44
2017-04-02T02:42:11.042Z,1009.47
2017-04-02T02:43:11.074Z,1009.45
2017-04-02T02:44:11.105Z,1009.45
2017-04-02T02:45:11.140Z,1009.47
2017-04-02T02:46:11.174Z,1009.49
2017-04-02T02:47:11.203Z,1009.52
2017-04-02T02:48:11.240Z,1009.51
2017-04-02T02:49:11.270Z,1009.51
2017-04-02T02:50:11.304Z,1009.51
2017-04-02T02:51:11.336Z,1009.51
2017-04-02T02:52:11.367Z,1009.54
2017-04-02T02:53:11.400Z,1009.57
2017-04-02T02:54:11.434Z,1009.56
2017-04-02T02:55:11.466Z,1009.61
2017-04-02T02:56:11.501Z,1009.59
2017-04-02T02:57:11.531Z,1009.56
2017-04-02T02:58:11.563Z,1009.6
2017-04-02T02:59:11.597Z,1009.63
2017-04-02T03:00:11.649Z,1009.64
2017-04-02T03:01:11.660Z,1009.62
2017-04-02T03:02:11.693Z,1009.71
2017-04-02T03:03:11.725Z,1009.67
2017-04-02T03:04:11.759Z,1009.67
2017-04-02T03:05:11.788Z,1009.69
2017-04-02T03:06:11.823Z,1009.67
2017-04-02T03:07:11.853Z,1009.69
2017-04-02T03:08:11.886Z,1009.71
2017-04-02T03:09:11.924Z,1009.72
2017-04-02T03:10:11.949Z,1009.7
2017-04-02T03:11:11.985Z,1009.72
2017-04-02T03:12:12.019Z,1009.72
2017-04-02T03:13:12.048Z,1009.74
2017-04-02T03:14:12.082Z,1009.74
2017-04-02T03:15:12.116Z,1009.71
2017-04-02T03:16:12.146Z,1009.66
2017-04-02T03:17:12.177Z,1009.65
2017-04-02T03:18:12.210Z,1009.64
2017-04-02T03:19:12.247Z,1009.68
2017-04-02T03:20:12.276Z,1009.7
2017-04-02T03:21:12.307Z,1009.71
2017-04-02T03:22:12.343Z,1009.75
2017-04-02T03:23:12.372Z,1009.73
2017-04-02T03:24:12.402Z,1009.77
2017-04-02T03:25:12.436Z,1009.79
2017-04-02T03:26:12.469Z,1009.78
2017-04-02T03:27:12.501Z,1009.84
2017-04-02T03:28:12.532Z,1009.78
2017-04-02T03:29:12.568Z,1009.81
2017-04-02T03:30:12.610Z,1009.77
2017-04-02T03:31:12.630Z,1009.82
2017-04-02T03:32:12.661Z,1009.85
2017-04-02T03:33:12.694Z,1009.81
2017-04-02T03:34:12.727Z,1009.84
2017-04-02T03:35:12.760Z,1009.82
2017-04-02T03:36:12.794Z,1009.82
2017-04-02T03:37:12.826Z,1009.83
2017-04-02T03:38:12.847Z,1009.84
2017-04-02T03:39:12.886Z,1009.82
2017-04-02T03:40:12.921Z,1009.86
2017-04-02T03:41:12.954Z,1009.83
2017-04-02T03:42:12.982Z,1009.86
2017-04-02T03:43:13.015Z,1009.84
2017-04-02T03:44:13.053Z,1009.85
2017-04-02T03:45:13.081Z,1009.85
2017-04-02T03:46:13.113Z,1009.83
2017-04-02T03:47:13.147Z,1009.83
2017-04-02T03:48:13.178Z,1009.89
2017-04-02T03:49:13.208Z,1009.9
2017-04-02T03:50:13.393Z,1009.86
2017-04-02T03:51:13.275Z,1009.86
2017-04-02T03:52:13.308Z,1009.91
2017-04-02T03:53:13.341Z,1009.91
2017-04-02T03:54:13.373Z,1009.93
2017-04-02T03:55:13.403Z,1009.93
2017-04-02T03:56:13.435Z,1009.9
2017-04-02T03:57:13.462Z,1009.93
2017-04-02T03:58:13.498Z,1009.95
2017-04-02T03:59:13.533Z,1009.94
2017-04-02T04:00:13.781Z,1009.95
2017-04-02T04:01:13.594Z,1009.97
2017-04-02T04:02:13.626Z,1009.95
2017-04-02T04:03:13.662Z,1009.92
2017-04-02T04:04:13.691Z,1009.93
2017-04-02T04:05:13.722Z,1009.95
2017-04-02T04:06:13.756Z,1009.9
2017-04-02T04:07:13.787Z,1009.91
2017-04-02T04:08:13.823Z,1009.87
2017-04-02T04:09:13.852Z,1009.92
2017-04-02T04:10:13.883Z,1009.89
2017-04-02T04:11:13.914Z,1009.91
2017-04-02T04:12:13.950Z,1009.95
2017-04-02T04:13:13.982Z,1009.97
2017-04-02T04:14:14.011Z,1009.97
2017-04-02T04:15:14.042Z,1009.98
2017-04-02T04:16:14.061Z,1009.97
2017-04-02T04:17:14.106Z,1010.05
2017-04-02T04:18:14.139Z,1010.08
2017-04-02T04:19:14.168Z,1010.06
2017-04-02T04:20:14.201Z,1010.07
2017-04-02T04:21:14.237Z,1010.06
2017-04-02T04:22:14.266Z,1010.05
2017-04-02T04:23:14.295Z,1010.08
2017-04-02T04:24:14.326Z,1010.07
2017-04-02T04:25:14.363Z,1010.03
2017-04-02T04:26:14.393Z,1010.05
2017-04-02T04:27:14.426Z,1010.07
2017-04-02T04:28:14.459Z,1010.08
2017-04-02T04:29:14.493Z,1010.11
2017-04-02T04:30:14.521Z,1010.12
2017-04-02T04:31:14.553Z,1010.07
2017-04-02T04:32:14.583Z,1010.1
2017-04-02T04:33:14.617Z,1010.16
2017-04-02T04:34:14.650Z,1010.18
2017-04-02T04:35:14.665Z,1010.16
2017-04-02T04:36:14.710Z,1010.19
2017-04-02T04:37:14.742Z,1010.19
2017-04-02T04:38:14.770Z,1010.22
2017-04-02T04:39:14.806Z,1010.28
2017-04-02T04:40:14.837Z,1010.31
2017-04-02T04:41:14.869Z,1010.31
2017-04-02T04:42:14.902Z,1010.33
2017-04-02T04:43:14.932Z,1010.34
2017-04-02T04:44:14.965Z,1010.36
2017-04-02T04:45:14.998Z,1010.43
2017-04-02T04:46:15.031Z,1010.46
2017-04-02T04:47:15.063Z,1010.5
2017-04-02T04:48:15.094Z,1010.57
2017-04-02T04:49:15.124Z,1010.61
2017-04-02T04:50:15.159Z,1010.6
2017-04-02T04:51:15.187Z,1010.53
2017-04-02T04:52:15.220Z,1010.54
2017-04-02T04:53:15.256Z,1010.6
2017-04-02T04:54:15.286Z,1010.6
2017-04-02T04:55:15.614Z,1010.61
2017-04-02T04:56:15.351Z,1010.66
2017-04-02T04:57:15.380Z,1010.73
2017-04-02T04:58:15.411Z,1010.73
2017-04-02T04:59:15.446Z,1010.75
2017-04-02T05:00:15.468Z,1010.75
2017-04-02T05:01:15.509Z,1010.78
2017-04-02T05:02:15.540Z,1010.83
2017-04-02T05:03:15.573Z,1010.85
2017-04-02T05:04:15.603Z,1010.88
2017-04-02T05:05:15.632Z,1010.86
2017-04-02T05:06:15.669Z,1010.87
2017-04-02T05:07:15.699Z,1010.86
2017-04-02T05:08:15.730Z,1010.92
2017-04-02T05:09:15.765Z,1010.96
2017-04-02T05:10:15.791Z,1011
2017-04-02T05:11:15.826Z,1010.99
2017-04-02T05:12:15.856Z,1011.01
2017-04-02T05:13:15.889Z,1011.03
2017-04-02T05:14:15.919Z,1011.06
2017-04-02T05:15:15.950Z,1011.06
2017-04-02T05:16:15.983Z,1011.07
2017-04-02T05:17:16.016Z,1011.09
2017-04-02T05:18:16.048Z,1011.14
2017-04-02T05:19:16.087Z,1011.2
2017-04-02T05:20:16.112Z,1011.19
2017-04-02T05:21:16.143Z,1011.22
2017-04-02T05:22:16.176Z,1011.24
2017-04-02T05:23:16.207Z,1011.22
2017-04-02T05:24:16.234Z,1011.21
2017-04-02T05:25:16.269Z,1011.27
2017-04-02T05:26:16.302Z,1011.28
2017-04-02T05:27:16.333Z,1011.31
2017-04-02T05:28:16.363Z,1011.37
2017-04-02T05:29:16.392Z,1011.42
2017-04-02T05:30:16.468Z,1011.38
2017-04-02T05:31:16.448Z,1011.42
2017-04-02T05:32:16.492Z,1011.44
2017-04-02T05:33:16.522Z,1011.41
2017-04-02T05:34:16.555Z,1011.41
2017-04-02T05:35:16.588Z,1011.46
2017-04-02T05:36:16.618Z,1011.46
2017-04-02T05:37:16.650Z,1011.46
2017-04-02T05:38:16.680Z,1011.48
2017-04-02T05:39:16.715Z,1011.5
2017-04-02T05:40:16.751Z,1011.57
2017-04-02T05:41:16.782Z,1011.59
2017-04-02T05:42:16.811Z,1011.64
2017-04-02T05:43:16.846Z,1011.72
2017-04-02T05:44:16.879Z,1011.73
2017-04-02T05:45:16.907Z,1011.79
2017-04-02T05:46:16.939Z,1011.84
2017-04-02T05:47:16.971Z,1011.87
2017-04-02T05:48:17.004Z,1011.89
2017-04-02T05:49:17.039Z,1011.96
2017-04-02T05:50:17.168Z,1011.91
2017-04-02T05:51:17.100Z,1011.96
2017-04-02T05:52:17.134Z,1011.97
2017-04-02T05:53:17.169Z,1011.98
2017-04-02T05:54:17.197Z,1012
2017-04-02T05:55:17.242Z,1012.03
2017-04-02T05:56:17.267Z,1012.03
2017-04-02T05:57:17.297Z,1012.04
2017-04-02T05:58:17.330Z,1011.97
2017-04-02T05:59:17.366Z,1012.02
2017-04-02T06:00:17.383Z,1012.03
2017-04-02T06:01:17.430Z,1011.98
2017-04-02T06:02:17.466Z,1011.99
2017-04-02T06:03:17.499Z,1012.01
2017-04-02T06:04:17.529Z,1012.04
2017-04-02T06:05:17.562Z,1012.09
2017-04-02T06:06:17.599Z,1012.04
2017-04-02T06:07:17.632Z,1012.21
2017-04-02T06:08:17.661Z,1012.13
2017-04-02T06:09:17.698Z,1012.11
2017-04-02T06:10:17.729Z,1012.12
2017-04-02T06:11:17.767Z,1012.12
2017-04-02T06:12:17.794Z,1012.18
2017-04-02T06:13:17.827Z,1012.18
2017-04-02T06:14:17.862Z,1012.21
2017-04-02T06:15:18.395Z,1012.25
2017-04-02T06:16:17.931Z,1012.27
2017-04-02T06:17:17.963Z,1012.27
2017-04-02T06:18:17.989Z,1012.34
2017-04-02T06:19:18.032Z,1012.29
2017-04-02T06:20:18.064Z,1012.22
2017-04-02T06:21:18.097Z,1012.3
2017-04-02T06:22:18.132Z,1012.22
2017-04-02T06:23:18.166Z,1012.23
2017-04-02T06:24:18.198Z,1012.32
2017-04-02T06:25:18.233Z,1012.42
2017-04-02T06:26:18.265Z,1012.45
2017-04-02T06:27:18.298Z,1012.51
2017-04-02T06:28:18.332Z,1012.54
2017-04-02T06:29:18.365Z,1012.61
2017-04-02T06:30:18.400Z,1012.83
2017-04-02T06:31:18.440Z,1013
2017-04-02T06:32:18.455Z,1012.97
2017-04-02T06:33:18.506Z,1013.11
2017-04-02T06:34:18.539Z,1013.16
2017-04-02T06:35:18.573Z,1013.17
2017-04-02T06:36:18.608Z,1013.09
2017-04-02T06:37:18.640Z,1013.08
2017-04-02T06:38:18.676Z,1013.13
2017-04-02T06:39:18.715Z,1013.15
2017-04-02T06:40:18.747Z,1013.22
2017-04-02T06:41:18.782Z,1013.28
2017-04-02T06:42:18.821Z,1013.25
2017-04-02T06:43:18.851Z,1013.29
2017-04-02T06:44:18.891Z,1013.08
2017-04-02T06:45:18.924Z,1013.24
2017-04-02T06:46:18.960Z,1013.19
2017-04-02T06:47:19.007Z,1013.09
2017-04-02T06:48:19.033Z,1013.03
2017-04-02T06:49:19.072Z,1012.84
2017-04-02T06:50:19.106Z,1012.83
2017-04-02T06:51:19.141Z,1012.81
2017-04-02T06:52:19.178Z,1012.83
2017-04-02T06:53:19.216Z,1012.8
2017-04-02T06:54:19.251Z,1012.84
2017-04-02T06:55:19.287Z,1012.87
2017-04-02T06:56:19.326Z,1012.89
2017-04-02T06:57:19.359Z,1012.95
2017-04-02T06:58:19.398Z,1013.04
2017-04-02T06:59:19.417Z,1013.48
2017-04-02T07:00:19.493Z,1013.77
2017-04-02T07:01:19.506Z,1013.61
2017-04-02T07:02:19.544Z,1013.61
2017-04-02T07:03:19.579Z,1013.23
2017-04-02T07:04:19.611Z,1013.05
2017-04-02T07:05:19.749Z,1013.1
2017-04-02T07:06:19.686Z,1013.09
2017-04-02T07:07:19.723Z,1013.16
2017-04-02T07:08:19.759Z,1013.11
2017-04-02T07:09:19.801Z,1013.11
2017-04-02T07:10:19.835Z,1013.14
2017-04-02T07:11:19.867Z,1013.1
2017-04-02T07:12:19.904Z,1013.16
2017-04-02T07:13:19.936Z,1013.16
2017-04-02T07:14:19.978Z,1013.18
2017-04-02T07:15:20.017Z,1013.17
2017-04-02T07:16:20.049Z,1013.13
2017-04-02T07:17:20.086Z,1013.16
2017-04-02T07:18:20.122Z,1013.19
2017-04-02T07:19:20.159Z,1013.2
2017-04-02T07:20:20.196Z,1013.2
2017-04-02T07:21:20.234Z,1013.26
2017-04-02T07:22:20.267Z,1013.25
2017-04-02T07:23:20.306Z,1013.27
2017-04-02T07:24:20.339Z,1013.28
2017-04-02T07:25:20.477Z,1013.3
2017-04-02T07:26:20.441Z,1013.31
2017-04-02T07:27:20.447Z,1013.31
2017-04-02T07:28:20.481Z,1013.32
2017-04-02T07:29:20.518Z,1013.35
2017-04-02T07:30:20.553Z,1013.48
2017-04-02T07:31:20.591Z,1013.48
2017-04-02T07:32:20.627Z,1013.53
2017-04-02T07:33:20.663Z,1013.53
2017-04-02T07:34:20.698Z,1013.52
2017-04-02T07:35:20.733Z,1013.55
2017-04-02T07:36:20.765Z,1013.57
2017-04-02T07:37:20.804Z,1013.55
2017-04-02T07:38:20.838Z,1013.57
2017-04-02T07:39:20.863Z,1013.68
2017-04-02T07:40:20.916Z,1013.63
2017-04-02T07:41:20.950Z,1013.73
2017-04-02T07:42:20.982Z,1013.75
2017-04-02T07:43:21.017Z,1013.75
2017-04-02T07:44:21.055Z,1013.76
2017-04-02T07:45:21.090Z,1014.02
2017-04-02T07:46:21.124Z,1013.87
2017-04-02T07:47:21.161Z,1014.29
2017-04-02T07:48:21.195Z,1013.9
2017-04-02T07:49:21.232Z,1013.91
2017-04-02T07:50:21.266Z,1013.94
2017-04-02T07:51:21.302Z,1013.98
2017-04-02T07:52:21.340Z,1013.92
2017-04-02T07:53:21.378Z,1014.24
2017-04-02T07:54:21.411Z,1014.03
2017-04-02T07:55:21.449Z,1013.97
2017-04-02T07:56:21.486Z,1013.88
2017-04-02T07:57:21.523Z,1014.01
2017-04-02T07:58:21.562Z,1013.95
2017-04-02T07:59:21.581Z,1014.1
2017-04-02T08:00:21.643Z,1013.92
2017-04-02T08:01:21.674Z,1014.06
2017-04-02T08:02:21.714Z,1013.93
2017-04-02T08:03:21.751Z,1014.04
2017-04-02T08:04:21.788Z,1014.1
2017-04-02T08:05:21.826Z,1014.03
2017-04-02T08:06:21.863Z,1014
2017-04-02T08:07:21.904Z,1014.03
2017-04-02T08:08:21.945Z,1013.99
2017-04-02T08:09:21.977Z,1013.96
2017-04-02T08:10:22.017Z,1013.98
2017-04-02T08:11:22.042Z,1013.96
2017-04-02T08:12:22.087Z,1013.93
2017-04-02T08:13:22.130Z,1013.98
2017-04-02T08:14:22.173Z,1014.06
2017-04-02T08:15:22.212Z,1014.03
2017-04-02T08:16:22.249Z,1014.33
2017-04-02T08:17:22.286Z,1014.33
2017-04-02T08:18:22.327Z,1014.22
2017-04-02T08:19:22.362Z,1014.35
2017-04-02T08:20:22.402Z,1014.32
2017-04-02T08:21:22.442Z,1014.34
2017-04-02T08:22:22.480Z,1014.24
2017-04-02T08:23:22.521Z,1014.22
2017-04-02T08:24:22.560Z,1014.34
2017-04-02T08:25:22.599Z,1014.36
2017-04-02T08:26:22.639Z,1014.35
2017-04-02T08:27:22.680Z,1014.41
2017-04-02T08:28:22.723Z,1014.4
2017-04-02T08:29:22.762Z,1014.4
2017-04-02T08:30:22.803Z,1014.44
2017-04-02T08:31:22.841Z,1014.38
2017-04-02T08:32:22.881Z,1014.44
2017-04-02T08:33:22.922Z,1014.46
2017-04-02T08:34:22.963Z,1014.53
2017-04-02T08:35:23.005Z,1014.58
2017-04-02T08:36:23.046Z,1014.52
2017-04-02T08:37:23.081Z,1014.51
2017-04-02T08:38:23.128Z,1014.64
2017-04-02T08:39:23.168Z,1014.62
2017-04-02T08:40:23.209Z,1014.7
2017-04-02T08:41:23.251Z,1014.55
2017-04-02T08:42:23.295Z,1014.68
2017-04-02T08:43:23.323Z,1014.61
2017-04-02T08:44:23.380Z,1014.58
2017-04-02T08:45:23.422Z,1014.74
2017-04-02T08:46:23.463Z,1014.83
2017-04-02T08:47:23.505Z,1014.84
2017-04-02T08:48:23.546Z,1014.83
2017-04-02T08:49:23.594Z,1014.73
2017-04-02T08:50:23.630Z,1014.69
2017-04-02T08:51:23.675Z,1014.62
2017-04-02T08:52:23.720Z,1014.57
2017-04-02T08:53:23.757Z,1014.58
2017-04-02T08:54:23.802Z,1014.6
2017-04-02T08:55:23.844Z,1014.68
2017-04-02T08:56:23.889Z,1014.67
2017-04-02T08:57:23.927Z,1014.73
2017-04-02T08:58:23.970Z,1014.72
2017-04-02T08:59:24.026Z,1014.7
2017-04-02T09:00:24.060Z,1014.65
2017-04-02T09:01:24.107Z,1014.71
2017-04-02T09:02:24.122Z,1014.77
2017-04-02T09:03:24.175Z,1014.82
2017-04-02T09:04:24.216Z,1014.85
2017-04-02T09:05:24.257Z,1014.92
2017-04-02T09:06:24.298Z,1015.03
2017-04-02T09:07:24.335Z,1015.11
2017-04-02T09:08:24.385Z,1015.12
2017-04-02T09:09:24.418Z,1015.1
2017-04-02T09:10:24.458Z,1015.14
2017-04-02T09:11:24.493Z,1015.11
2017-04-02T09:12:24.538Z,1015.06
2017-04-02T09:13:24.577Z,1015.14
2017-04-02T09:14:24.616Z,1015.16
2017-04-02T09:15:24.654Z,1015.28
2017-04-02T09:16:24.696Z,1015.54
2017-04-02T09:17:24.739Z,1015.34
2017-04-02T09:18:24.776Z,1015.57
2017-04-02T09:19:24.820Z,1015.61
2017-04-02T09:20:24.856Z,1015.53
2017-04-02T09:21:24.888Z,1015.66
2017-04-02T09:22:24.940Z,1015.24
2017-04-02T09:23:24.983Z,1015.15
2017-04-02T09:24:25.026Z,1015.13
2017-04-02T09:25:25.064Z,1015.16
2017-04-02T09:26:25.107Z,1015.21
2017-04-02T09:27:25.133Z,1015.22
2017-04-02T09:28:25.189Z,1015.27
2017-04-02T09:29:25.231Z,1015.28
2017-04-02T09:30:25.272Z,1015.33
2017-04-02T09:31:25.311Z,1015.45
2017-04-02T09:32:25.356Z,1015.36
2017-04-02T09:33:25.395Z,1015.46
2017-04-02T09:34:25.437Z,1015.54
2017-04-02T09:35:25.475Z,1015.55
2017-04-02T09:36:25.514Z,1015.53
2017-04-02T09:37:25.556Z,1015.96
2017-04-02T09:38:25.595Z,1016.15
2017-04-02T09:39:25.638Z,1015.85
2017-04-02T09:40:25.718Z,1016.23
2017-04-02T09:41:25.717Z,1016.01
2017-04-02T09:42:25.762Z,1015.54
2017-04-02T09:43:25.802Z,1015.52
2017-04-02T09:44:25.843Z,1015.43
2017-04-02T09:45:25.890Z,1015.31
2017-04-02T09:46:25.928Z,1015.36
2017-04-02T09:47:25.969Z,1015.56
2017-04-02T09:48:26.011Z,1015.63
2017-04-02T09:49:26.053Z,1015.71
2017-04-02T09:50:26.096Z,1016.39
2017-04-02T09:51:26.137Z,1015.53
2017-04-02T09:52:26.177Z,1015.45
2017-04-02T09:53:26.222Z,1015.42
2017-04-02T09:54:26.259Z,1015.45
2017-04-02T09:55:26.303Z,1015.44
2017-04-02T09:56:26.336Z,1015.35
2017-04-02T09:57:26.383Z,1015.36
2017-04-02T09:58:26.429Z,1015.47
2017-04-02T09:59:26.468Z,1015.47
2017-04-02T10:00:26.508Z,1015.87
2017-04-02T10:01:26.552Z,1015.43
2017-04-02T10:02:26.591Z,1015.51
2017-04-02T10:03:26.628Z,1015.51
2017-04-02T10:04:26.670Z,1015.86
2017-04-02T10:05:26.710Z,1016.3
2017-04-02T10:06:26.739Z,1015.35
2017-04-02T10:07:26.792Z,1015.39
2017-04-02T10:08:26.833Z,1015.42
2017-04-02T10:09:26.868Z,1015.52
2017-04-02T10:10:26.910Z,1015.65
2017-04-02T10:11:26.953Z,1016.8
2017-04-02T10:12:26.990Z,1016.81
2017-04-02T10:13:27.032Z,1016.59
2017-04-02T10:14:27.069Z,1015.64
2017-04-02T10:15:27.108Z,1016.89
2017-04-02T10:16:27.150Z,1017
2017-04-02T10:17:27.188Z,1016.49
2017-04-02T10:18:27.233Z,1016.87
2017-04-02T10:19:27.270Z,1016.78
2017-04-02T10:20:27.312Z,1017.01
2017-04-02T10:21:27.354Z,1017.14
2017-04-02T10:22:27.398Z,1017.1
2017-04-02T10:23:27.437Z,1017.16
2017-04-02T10:24:27.474Z,1017.32
2017-04-02T10:25:27.512Z,1017.39
2017-04-02T10:26:27.555Z,1017.39
2017-04-02T10:27:27.598Z,1017.47
2017-04-02T10:28:27.639Z,1017.59
2017-04-02T10:29:27.678Z,1017.6
2017-04-02T10:30:27.723Z,1017.78
2017-04-02T10:31:27.761Z,1015.75
2017-04-02T10:32:27.809Z,1015.5
2017-04-02T10:33:27.845Z,1015.87
2017-04-02T10:34:27.886Z,1015.72
2017-04-02T10:35:27.928Z,1015.53
2017-04-02T10:36:27.968Z,1015.47
2017-04-02T10:37:28.008Z,1015.46
2017-04-02T10:38:28.032Z,1018.27
2017-04-02T10:39:28.092Z,1018.31
2017-04-02T10:40:28.134Z,1018.41
2017-04-02T10:41:28.172Z,1018.5
2017-04-02T10:42:28.213Z,1016.54
2017-04-02T10:43:28.255Z,1018.81
2017-04-02T10:44:28.299Z,1015.51
2017-04-02T10:45:28.337Z,1015.49
2017-04-02T10:46:28.375Z,1015.46
2017-04-02T10:47:28.414Z,1015.46
2017-04-02T10:48:28.456Z,1015.48
2017-04-02T10:49:28.496Z,1015.43
2017-04-02T10:50:28.538Z,1015.48
2017-04-02T10:51:28.576Z,1015.52
2017-04-02T10:52:28.615Z,1016.73
2017-04-02T10:53:28.656Z,1019.46
2017-04-02T10:54:28.695Z,1019.67
2017-04-02T10:55:28.735Z,1019.71
2017-04-02T10:56:28.777Z,1018.73
2017-04-02T10:57:28.814Z,1016.69
2017-04-02T10:58:28.854Z,1015.91
2017-04-02T10:59:28.893Z,1015.87
2017-04-02T11:00:28.933Z,1015.87
2017-04-02T11:01:28.974Z,1015.85
2017-04-02T11:02:29.009Z,1015.85
2017-04-02T11:03:29.052Z,1015.75
2017-04-02T11:04:29.089Z,1015.65
2017-04-02T11:05:29.133Z,1015.57
2017-04-02T11:06:29.171Z,1015.68
2017-04-02T11:07:29.208Z,1015.55
2017-04-02T11:08:29.249Z,1015.59
2017-04-02T11:09:29.289Z,1015.63
2017-04-02T11:10:29.330Z,1015.64
2017-04-02T11:11:29.367Z,1015.64
2017-04-02T11:12:29.408Z,1015.72
2017-04-02T11:13:29.446Z,1015.74
2017-04-02T11:14:29.485Z,1015.82
2017-04-02T11:15:29.528Z,1015.91
2017-04-02T11:16:29.562Z,1015.82
2017-04-02T11:17:29.602Z,1015.83
2017-04-02T11:18:29.642Z,1015.82
2017-04-02T11:19:29.681Z,1015.8
2017-04-02T11:20:29.720Z,1015.88
2017-04-02T11:21:29.764Z,1015.85
2017-04-02T11:22:29.796Z,1015.81
2017-04-02T11:23:29.832Z,1015.81
2017-04-02T11:24:29.873Z,1015.8
2017-04-02T11:25:29.914Z,1015.89
2017-04-02T11:26:29.952Z,1015.86
2017-04-02T11:27:29.993Z,1015.83
2017-04-02T11:28:30.031Z,1015.82
2017-04-02T11:29:30.069Z,1015.8
2017-04-02T11:30:30.110Z,1015.81
2017-04-02T11:31:30.153Z,1015.88
2017-04-02T11:32:30.188Z,1015.82
2017-04-02T11:33:30.228Z,1015.8
2017-04-02T11:34:30.266Z,1015.82
2017-04-02T11:35:30.306Z,1015.85
2017-04-02T11:36:30.344Z,1015.9
2017-04-02T11:37:30.382Z,1015.86
2017-04-02T11:38:30.423Z,1015.9
2017-04-02T11:39:30.459Z,1015.87
2017-04-02T11:40:30.497Z,1015.89
2017-04-02T11:41:30.523Z,1015.89
2017-04-02T11:42:30.572Z,1015.86
2017-04-02T11:43:30.617Z,1015.91
2017-04-02T11:44:30.653Z,1015.86
2017-04-02T11:45:30.689Z,1015.93
2017-04-02T11:46:30.727Z,1015.86
2017-04-02T11:47:30.770Z,1015.92
2017-04-02T11:48:30.800Z,1015.92
2017-04-02T11:49:30.842Z,1015.86
2017-04-02T11:50:30.878Z,1015.86
2017-04-02T11:51:30.921Z,1015.86
2017-04-02T11:52:30.957Z,1015.9
2017-04-02T11:53:30.998Z,1015.95
2017-04-02T11:54:31.025Z,1015.89
2017-04-02T11:55:31.068Z,1015.9
2017-04-02T11:56:31.112Z,1015.9
2017-04-02T11:57:31.150Z,1015.89
2017-04-02T11:58:31.184Z,1015.85
2017-04-02T11:59:31.226Z,1015.88
2017-04-02T12:00:31.259Z,1015.87
2017-04-02T12:01:31.300Z,1015.86
2017-04-02T12:02:31.321Z,1015.86
2017-04-02T12:03:31.372Z,1015.83
2017-04-02T12:04:31.411Z,1015.8
2017-04-02T12:05:31.449Z,1015.9
2017-04-02T12:06:31.487Z,1015.86
2017-04-02T12:07:31.528Z,1015.83
2017-04-02T12:08:31.563Z,1015.83